Detailed System and Site Information

System Data Health
Measure Timestamp Ago Health
Web Server Live 14:51:42, 1st August 2014 0 s health
Last live-data upload from local system (nw3) 14:51:40, 1st August 2014 2 s health
Last upload of secondary data 23:00:26, 31st July 2014 16 hours health
Latest Webcam upload 14:51:08, 1st August 2014 34 s health
Last upload of 24hr data log 14:49:08, 1st August 2014 3 mins health
Last full data process 14:50:02, 1st August 2014 2 mins health
Last data downtime (>15 mins) 17:01:02, 2nd April 2014 121 days
Local System and Site Information
Measure Value
WD Version & Build # 10.37R - 40
WD Start Time 08:30 23/07/14
WD Data Count 256839
WD Memory Use 65,928 K
--- ---
Windows Uptime 8 Days 14 Hours 31 Minutes 3 Seconds
Free System Memory 2624 MB (Max: 4GB)
--- ---
Station Altitude 57 m (187 ft)
Station Latitude 51.556
Station Longitude -0.154
Machine Room Conditions
Measure Value
Temperature 24.3 °C
Temperature Trend -0.1 °C /hr
Relative Humidity 44%
Dew Point 11.3 °C
--- ---
Tmin Today 23.9 °C at 10:13
Tmax Today 30.0 °C at 19:28
Hmin Today 16% at 00:05
Hmax Today 96% at 19:28
Tmin Yesterday 22.3 °C at 21:51
Tmax Yesterday 25.1 °C at 07:45

Site owner and administrator: Ben Lee-Rodgers (2010 - present)

Last 10hrs Temp/Hum for Secondary Sensor and Indoors

Extra Sensors/Indoor

Other

Raw METAR from EGLL (Heathrow)

EGLL 011320Z 20012KT 9999 SCT039 24/13 Q1007
Decode Instructions
Source

WD Screenshot

not available